createdAt,value
2018-10-09T00:01:31.064Z,89.09
2018-10-09T00:03:59.330Z,89.92
2018-10-09T00:06:27.790Z,89.60
2018-10-09T00:08:56.050Z,88.08
2018-10-09T00:11:24.325Z,88.31
2018-10-09T00:13:52.606Z,89.18
2018-10-09T00:16:20.874Z,89.62
2018-10-09T00:18:49.198Z,89.80
2018-10-09T00:21:17.479Z,89.07
2018-10-09T00:23:45.782Z,89.34
2018-10-09T00:26:14.360Z,89.10
2018-10-09T00:28:42.598Z,90.03
2018-10-09T00:31:10.846Z,89.83
2018-10-09T00:33:39.128Z,88.52
2018-10-09T00:36:07.610Z,88.48
2018-10-09T00:38:35.910Z,88.52
2018-10-09T00:41:04.195Z,87.72
2018-10-09T00:43:32.502Z,88.13
2018-10-09T00:46:00.807Z,88.59
2018-10-09T00:48:29.111Z,89.33
2018-10-09T00:50:57.374Z,89.15
2018-10-09T00:53:25.650Z,90.00
2018-10-09T00:55:54.111Z,90.19
2018-10-09T00:58:22.432Z,90.07
2018-10-09T01:00:50.687Z,89.78
2018-10-09T01:03:18.974Z,88.91
2018-10-09T01:05:47.230Z,89.87
2018-10-09T01:08:15.513Z,90.40
2018-10-09T01:10:44.095Z,91.02
2018-10-09T01:13:12.366Z,90.53
2018-10-09T01:15:40.627Z,90.19
2018-10-09T01:18:08.914Z,90.12
2018-10-09T01:20:37.174Z,89.69
2018-10-09T01:23:06.522Z,89.87
2018-10-09T01:25:35.654Z,89.56
2018-10-09T01:28:04.062Z,89.75
2018-10-09T01:30:33.278Z,89.94
2018-10-09T01:33:02.096Z,90.78
2018-10-09T01:35:30.375Z,90.79
2018-10-09T01:37:58.667Z,90.67
2018-10-09T01:40:26.959Z,90.39
2018-10-09T01:42:55.274Z,90.44
2018-10-09T01:45:23.591Z,89.71
2018-10-09T01:47:51.872Z,90.04
2018-10-09T01:50:20.147Z,89.36
2018-10-09T01:52:48.461Z,90.18
2018-10-09T01:55:16.734Z,90.26
2018-10-09T01:57:45.370Z,90.74
2018-10-09T02:00:13.942Z,90.38
2018-10-09T02:02:42.374Z,89.77
2018-10-09T02:05:10.674Z,89.63
2018-10-09T02:07:38.998Z,89.88
2018-10-09T02:10:07.325Z,90.41
2018-10-09T02:12:35.598Z,90.10
2018-10-09T02:15:04.011Z,90.38
2018-10-09T02:17:32.304Z,91.60
2018-10-09T02:20:00.591Z,91.08
2018-10-09T02:22:28.870Z,91.60
2018-10-09T02:24:57.132Z,91.55
2018-10-09T02:27:25.411Z,90.74
2018-10-09T02:29:53.702Z,89.45
2018-10-09T02:32:21.976Z,89.64
2018-10-09T02:34:50.255Z,89.74
2018-10-09T02:37:18.545Z,90.33
2018-10-09T02:39:46.818Z,91.18
2018-10-09T02:42:15.082Z,91.74
2018-10-09T02:44:43.366Z,92.20
2018-10-09T02:47:11.630Z,91.86
2018-10-09T02:49:39.964Z,91.56
2018-10-09T02:52:08.178Z,91.97
2018-10-09T02:54:36.461Z,92.12
2018-10-09T02:57:04.756Z,92.73
2018-10-09T02:59:33.035Z,92.65
2018-10-09T03:02:01.290Z,92.91
2018-10-09T03:04:29.578Z,93.13
2018-10-09T03:06:58.798Z,92.33
2018-10-09T03:09:27.078Z,91.56
2018-10-09T03:11:55.344Z,91.25
2018-10-09T03:14:23.626Z,91.00
2018-10-09T03:16:51.878Z,92.23
2018-10-09T03:19:20.151Z,92.53
2018-10-09T03:21:48.410Z,91.78
2018-10-09T03:24:16.702Z,91.21
2018-10-09T03:26:44.966Z,90.49
2018-10-09T03:29:13.246Z,90.86
2018-10-09T03:31:41.514Z,90.83
2018-10-09T03:34:09.806Z,91.91
2018-10-09T03:36:38.062Z,93.10
2018-10-09T03:39:07.904Z,92.49
2018-10-09T03:41:36.170Z,92.50
2018-10-09T03:44:04.478Z,92.97
2018-10-09T03:46:32.758Z,92.38
2018-10-09T03:49:01.065Z,92.88
2018-10-09T03:51:29.326Z,92.83
2018-10-09T03:53:57.602Z,92.79
2018-10-09T03:56:25.881Z,91.94
2018-10-09T03:58:54.150Z,92.23
2018-10-09T04:01:22.406Z,92.33
2018-10-09T04:03:51.666Z,91.82
2018-10-09T04:06:19.938Z,91.83
2018-10-09T04:08:48.226Z,92.46
2018-10-09T04:11:16.509Z,92.80
2018-10-09T04:13:44.970Z,92.81
2018-10-09T04:16:13.262Z,93.24
2018-10-09T04:18:42.103Z,92.38
2018-10-09T04:21:10.367Z,92.82
2018-10-09T04:23:39.148Z,93.13
2018-10-09T04:26:07.903Z,92.17
2018-10-09T04:28:36.198Z,92.35
2018-10-09T04:31:04.471Z,92.03
2018-10-09T04:33:32.858Z,92.67
2018-10-09T04:36:01.184Z,91.89
2018-10-09T04:38:29.646Z,92.51
2018-10-09T04:40:57.947Z,91.80
2018-10-09T04:43:26.210Z,91.67
2018-10-09T04:45:54.510Z,92.69
2018-10-09T04:48:22.782Z,92.79
2018-10-09T04:50:51.062Z,92.64
2018-10-09T04:53:19.322Z,92.81
2018-10-09T04:55:47.614Z,93.96
2018-10-09T04:58:15.870Z,95.04
2018-10-09T05:00:44.222Z,95.37
2018-10-09T05:03:12.429Z,95.57
2018-10-09T05:05:40.719Z,95.58
2018-10-09T05:08:08.983Z,95.74
2018-10-09T05:10:37.274Z,95.10
2018-10-09T05:13:05.551Z,95.13
2018-10-09T05:15:33.835Z,95.56
2018-10-09T05:18:02.107Z,94.37
2018-10-09T05:20:30.388Z,94.78
2018-10-09T05:22:58.651Z,93.97
2018-10-09T05:25:26.931Z,92.75
2018-10-09T05:27:55.210Z,93.02
2018-10-09T05:30:23.486Z,92.23
2018-10-09T05:32:51.755Z,91.34
2018-10-09T05:35:20.041Z,91.56
2018-10-09T05:37:48.365Z,91.70
2018-10-09T05:40:17.014Z,92.14
2018-10-09T05:42:45.294Z,92.35
2018-10-09T05:45:13.583Z,92.07
2018-10-09T05:47:41.938Z,91.92
2018-10-09T05:50:11.177Z,91.85
2018-10-09T05:52:39.647Z,91.37
2018-10-09T05:55:08.791Z,91.17
2018-10-09T05:57:37.102Z,90.78
2018-10-09T06:00:05.530Z,91.09
2018-10-09T06:02:33.798Z,90.89
2018-10-09T06:05:02.071Z,89.49
2018-10-09T06:07:30.323Z,89.04
2018-10-09T06:09:58.594Z,88.67
2018-10-09T06:12:26.842Z,88.62
2018-10-09T06:14:55.131Z,89.38
2018-10-09T06:17:23.390Z,90.27
2018-10-09T06:19:51.678Z,90.71
2018-10-09T06:22:19.978Z,91.54
2018-10-09T06:24:48.222Z,92.22
2018-10-09T06:27:16.499Z,88.45
2018-10-09T06:29:44.787Z,88.60
2018-10-09T06:32:13.048Z,88.14
2018-10-09T06:34:41.330Z,87.99
2018-10-09T06:37:09.663Z,84.91
2018-10-09T06:39:37.894Z,85.82
2018-10-09T06:42:06.198Z,85.34
2018-10-09T06:44:34.470Z,85.33
2018-10-09T06:47:02.762Z,86.50
2018-10-09T06:49:31.054Z,84.71
2018-10-09T06:51:59.342Z,84.93
2018-10-09T06:54:27.676Z,82.16
2018-10-09T06:56:55.934Z,77.23
2018-10-09T06:59:24.196Z,71.84
2018-10-09T07:01:52.501Z,69.99
2018-10-09T07:04:20.777Z,66.30
2018-10-09T07:06:49.081Z,65.38
2018-10-09T07:09:17.371Z,64.82
2018-10-09T07:11:45.664Z,62.18
2018-10-09T07:14:13.942Z,59.68
2018-10-09T07:16:42.242Z,57.18
2018-10-09T07:19:10.514Z,58.41
2018-10-09T07:21:38.806Z,56.88
2018-10-09T07:24:07.079Z,56.63
2018-10-09T07:26:35.372Z,57.70
2018-10-09T07:29:03.671Z,55.61
2018-10-09T07:31:31.956Z,55.87
2018-10-09T07:34:00.246Z,55.70
2018-10-09T07:36:28.558Z,55.95
2018-10-09T07:38:57.055Z,55.70
2018-10-09T07:41:25.331Z,57.72
2018-10-09T07:43:53.700Z,60.81
2018-10-09T07:46:33.931Z,60.87
2018-10-09T07:49:02.238Z,60.08
2018-10-09T07:51:30.663Z,59.14
2018-10-09T07:53:58.959Z,55.88
2018-10-09T07:56:27.287Z,54.24
2018-10-09T07:58:55.815Z,51.58
2018-10-09T08:01:24.336Z,48.89
2018-10-09T08:03:52.651Z,47.48
2018-10-09T08:06:21.059Z,45.37
2018-10-09T08:08:49.383Z,43.00
2018-10-09T08:11:17.715Z,41.99
2018-10-09T08:13:46.047Z,40.56
2018-10-09T08:16:14.493Z,38.35
2018-10-09T08:18:42.959Z,36.17
2018-10-09T08:21:11.363Z,38.21
2018-10-09T08:23:39.663Z,35.50
2018-10-09T08:26:07.944Z,34.05
2018-10-09T08:28:36.260Z,32.41
2018-10-09T08:31:04.551Z,32.64
2018-10-09T08:33:33.264Z,30.46
2018-10-09T08:36:01.543Z,30.71
2018-10-09T08:38:29.903Z,28.60
2018-10-09T08:40:58.796Z,29.38
2018-10-09T08:43:27.110Z,31.23
2018-10-09T08:45:55.403Z,33.35
2018-10-09T08:48:23.730Z,36.31
2018-10-09T08:50:52.153Z,31.63
2018-10-09T08:53:20.475Z,30.24
2018-10-09T08:55:48.759Z,41.10
2018-10-09T08:58:17.082Z,40.07
2018-10-09T09:00:45.702Z,34.99
2018-10-09T09:03:14.002Z,32.39
2018-10-09T09:05:42.296Z,31.09
2018-10-09T09:08:10.607Z,30.67
2018-10-09T09:10:39.055Z,34.60
2018-10-09T09:13:07.392Z,36.54
2018-10-09T09:15:35.823Z,39.07
2018-10-09T09:18:04.136Z,37.50
2018-10-09T09:20:32.478Z,38.77
2018-10-09T09:23:00.771Z,34.37
2018-10-09T09:25:29.084Z,36.96
2018-10-09T09:27:57.379Z,36.05
2018-10-09T09:30:25.687Z,35.24
2018-10-09T09:32:53.981Z,33.36
2018-10-09T09:35:22.429Z,32.87
2018-10-09T09:37:51.452Z,36.76
2018-10-09T09:40:19.784Z,37.13
2018-10-09T09:42:48.082Z,37.40
2018-10-09T09:45:16.739Z,35.22
2018-10-09T09:47:45.415Z,33.06
2018-10-09T09:50:13.747Z,32.55
2018-10-09T09:52:42.076Z,29.39
2018-10-09T09:55:10.396Z,32.00
2018-10-09T09:57:38.723Z,29.78
2018-10-09T10:00:11.476Z,30.40
2018-10-09T10:02:39.748Z,28.55
2018-10-09T10:05:08.071Z,28.75
2018-10-09T10:07:36.392Z,26.85
2018-10-09T10:10:05.151Z,28.29
2018-10-09T10:12:33.423Z,25.92
2018-10-09T10:15:01.743Z,24.13
2018-10-09T10:17:30.031Z,24.68
2018-10-09T10:19:58.343Z,25.64
2018-10-09T10:22:26.638Z,26.48
2018-10-09T10:24:54.947Z,29.84
2018-10-09T10:27:23.247Z,30.55
2018-10-09T10:29:51.552Z,28.38
2018-10-09T10:32:19.863Z,29.87
2018-10-09T10:34:48.191Z,28.74
2018-10-09T10:37:16.519Z,32.41
2018-10-09T10:39:44.880Z,27.95
2018-10-09T10:42:13.342Z,22.32
2018-10-09T10:44:41.600Z,25.80
2018-10-09T10:47:09.894Z,23.73
2018-10-09T10:49:38.202Z,25.26
2018-10-09T10:52:06.525Z,21.87
2018-10-09T10:54:34.856Z,22.62
2018-10-09T10:57:03.163Z,21.65
2018-10-09T10:59:31.492Z,22.18
2018-10-09T11:01:59.796Z,25.67
2018-10-09T11:04:28.116Z,23.37
2018-10-09T11:06:56.427Z,24.81
2018-10-09T11:09:24.775Z,26.93
2018-10-09T11:11:53.071Z,31.34
2018-10-09T11:14:21.364Z,32.13
2018-10-09T11:16:49.675Z,33.50
2018-10-09T11:19:17.980Z,32.66
2018-10-09T11:21:46.355Z,32.29
2018-10-09T11:24:14.606Z,32.70
2018-10-09T11:26:43.108Z,30.05
2018-10-09T11:29:11.431Z,27.10
2018-10-09T11:31:39.767Z,23.97
2018-10-09T11:34:08.076Z,23.81
2018-10-09T11:36:36.387Z,20.87
2018-10-09T11:39:06.498Z,20.76
2018-10-09T11:41:34.803Z,20.39
2018-10-09T11:44:03.096Z,21.40
2018-10-09T11:46:31.532Z,20.67
2018-10-09T11:48:59.847Z,21.56
2018-10-09T11:51:28.180Z,22.86
2018-10-09T11:53:56.473Z,22.98
2018-10-09T11:56:24.774Z,24.76
2018-10-09T11:58:53.077Z,24.78
2018-10-09T12:01:21.396Z,25.85
2018-10-09T12:03:49.687Z,27.67
2018-10-09T12:06:18.371Z,29.27
2018-10-09T12:08:46.659Z,29.11
2018-10-09T12:11:14.995Z,30.32
2018-10-09T12:13:43.563Z,31.28
2018-10-09T12:16:11.888Z,30.18
2018-10-09T12:18:40.195Z,29.72
2018-10-09T12:21:08.572Z,29.57
2018-10-09T12:23:36.903Z,32.40
2018-10-09T12:26:05.231Z,33.16
2018-10-09T12:28:33.532Z,35.92
2018-10-09T12:31:01.840Z,33.87
2018-10-09T12:33:30.151Z,35.94
2018-10-09T12:35:58.442Z,36.43
2018-10-09T12:38:26.800Z,37.45
2018-10-09T12:40:55.062Z,35.89
2018-10-09T12:43:23.327Z,34.16
2018-10-09T12:45:51.631Z,34.10
2018-10-09T12:48:19.967Z,32.94
2018-10-09T12:50:48.356Z,32.52
2018-10-09T12:53:16.655Z,31.45
2018-10-09T12:55:44.928Z,32.27
2018-10-09T12:58:13.399Z,32.88
2018-10-09T13:00:41.679Z,33.73
2018-10-09T13:03:10.012Z,33.25
2018-10-09T13:05:38.282Z,29.63
2018-10-09T13:08:06.696Z,26.84
2018-10-09T13:10:34.959Z,26.86
2018-10-09T13:13:03.272Z,31.58
2018-10-09T13:15:31.549Z,32.05
2018-10-09T13:17:59.847Z,33.03
2018-10-09T13:20:28.148Z,34.27
2018-10-09T13:22:56.489Z,35.63
2018-10-09T13:25:24.859Z,36.96
2018-10-09T13:27:53.151Z,33.08
2018-10-09T13:30:21.418Z,29.96
2018-10-09T13:32:49.703Z,29.60
2018-10-09T13:35:18.008Z,30.14
2018-10-09T13:37:46.307Z,28.71
2018-10-09T13:40:14.572Z,31.92
2018-10-09T13:42:42.862Z,31.57
2018-10-09T13:45:11.144Z,32.98
2018-10-09T13:47:39.571Z,32.53
2018-10-09T13:50:07.729Z,33.66
2018-10-09T13:52:36.015Z,34.99
2018-10-09T13:55:04.439Z,35.73
2018-10-09T13:57:32.724Z,33.36
2018-10-09T14:00:00.998Z,35.80
2018-10-09T14:02:29.279Z,34.84
2018-10-09T14:04:57.559Z,36.51
2018-10-09T14:07:25.891Z,33.30
2018-10-09T14:09:54.147Z,31.14
2018-10-09T14:12:22.439Z,29.83
2018-10-09T14:14:50.727Z,31.88
2018-10-09T14:17:19.032Z,31.06
2018-10-09T14:19:47.303Z,31.71
2018-10-09T14:22:15.616Z,31.99
2018-10-09T14:24:43.918Z,29.73
2018-10-09T14:27:12.176Z,29.92
2018-10-09T14:29:40.575Z,30.24
2018-10-09T14:32:08.847Z,30.56
2018-10-09T14:34:37.127Z,33.47
2018-10-09T14:37:05.599Z,30.69
2018-10-09T14:39:33.902Z,30.24
2018-10-09T14:42:02.187Z,30.83
2018-10-09T14:44:30.478Z,32.33
2018-10-09T14:46:58.780Z,31.29
2018-10-09T14:49:27.059Z,31.42
2018-10-09T14:51:55.324Z,31.36
2018-10-09T14:54:23.611Z,32.19
2018-10-09T14:56:51.879Z,35.09
2018-10-09T14:59:20.152Z,35.33
2018-10-09T15:01:48.428Z,33.91
2018-10-09T15:04:16.731Z,36.73
2018-10-09T15:06:45.252Z,35.19
2018-10-09T15:09:14.383Z,35.52
2018-10-09T15:11:43.279Z,34.62
2018-10-09T15:14:11.767Z,35.30
2018-10-09T15:16:40.313Z,34.79
2018-10-09T15:19:08.975Z,36.84
2018-10-09T15:21:37.385Z,39.48
2018-10-09T15:24:05.688Z,40.67
2018-10-09T15:26:33.948Z,38.46
2018-10-09T15:29:02.432Z,38.54
2018-10-09T15:31:30.727Z,36.09
2018-10-09T15:33:59.003Z,36.37
2018-10-09T15:36:27.287Z,36.04
2018-10-09T15:38:55.567Z,35.88
2018-10-09T15:41:24.090Z,37.27
2018-10-09T15:43:52.392Z,36.74
2018-10-09T15:46:21.064Z,37.38
2018-10-09T15:48:49.336Z,37.27
2018-10-09T15:51:17.672Z,38.64
2018-10-09T15:53:45.972Z,40.85
2018-10-09T15:56:14.251Z,42.80
2018-10-09T15:58:42.519Z,44.51
2018-10-09T16:01:10.795Z,47.24
2018-10-09T16:03:39.099Z,48.27
2018-10-09T16:06:07.727Z,50.26
2018-10-09T16:08:36.029Z,51.49
2018-10-09T16:11:04.306Z,51.93
2018-10-09T16:13:32.619Z,53.20
2018-10-09T16:16:00.900Z,53.29
2018-10-09T16:18:29.224Z,53.67
2018-10-09T16:20:57.492Z,53.44
2018-10-09T16:23:25.779Z,54.55
2018-10-09T16:25:54.075Z,56.45
2018-10-09T16:28:22.704Z,57.06
2018-10-09T16:30:51.012Z,58.66
2018-10-09T16:33:19.295Z,59.37
2018-10-09T16:35:47.583Z,59.77
2018-10-09T16:38:15.869Z,60.40
2018-10-09T16:40:44.183Z,60.83
2018-10-09T16:43:12.487Z,61.79
2018-10-09T16:45:40.776Z,61.47
2018-10-09T16:48:09.075Z,62.54
2018-10-09T16:50:37.384Z,63.02
2018-10-09T16:53:07.157Z,63.32
2018-10-09T16:55:35.415Z,64.08
2018-10-09T16:58:03.707Z,64.59
2018-10-09T17:00:32.061Z,65.48
2018-10-09T17:03:00.283Z,65.80
2018-10-09T17:05:28.575Z,66.60
2018-10-09T17:07:56.855Z,65.68
2018-10-09T17:10:25.159Z,66.53
2018-10-09T17:12:53.524Z,67.89
2018-10-09T17:15:22.912Z,68.22
2018-10-09T17:17:51.136Z,69.74
2018-10-09T17:20:19.424Z,70.56
2018-10-09T17:22:47.695Z,69.94
2018-10-09T17:25:16.073Z,70.80
2018-10-09T17:27:44.338Z,71.50
2018-10-09T17:30:12.647Z,72.13
2018-10-09T17:32:40.928Z,72.51
2018-10-09T17:35:09.303Z,73.42
2018-10-09T17:37:37.561Z,72.49
2018-10-09T17:40:05.874Z,72.64
2018-10-09T17:42:34.139Z,73.57
2018-10-09T17:45:02.475Z,74.23
2018-10-09T17:47:31.197Z,75.36
2018-10-09T17:49:59.827Z,74.36
2018-10-09T17:52:28.103Z,75.44
2018-10-09T17:54:56.493Z,74.52
2018-10-09T17:57:26.276Z,74.23
2018-10-09T17:59:56.887Z,75.34
2018-10-09T18:02:26.209Z,74.80
2018-10-09T18:04:55.902Z,75.09
2018-10-09T18:07:24.272Z,76.09
2018-10-09T18:09:53.367Z,75.84
2018-10-09T18:12:21.851Z,75.51
2018-10-09T18:14:50.487Z,75.07
2018-10-09T18:17:18.711Z,75.44
2018-10-09T18:19:46.991Z,76.24
2018-10-09T18:22:15.265Z,76.27
2018-10-09T18:24:43.523Z,77.02
2018-10-09T18:27:11.816Z,77.04
2018-10-09T18:29:40.102Z,77.00
2018-10-09T18:32:08.403Z,77.08
2018-10-09T18:34:36.719Z,77.01
2018-10-09T18:37:05.034Z,77.75
2018-10-09T18:39:33.303Z,78.66
2018-10-09T18:42:01.637Z,79.28
2018-10-09T18:44:29.871Z,79.62
2018-10-09T18:48:00.407Z,79.37
2018-10-09T18:50:28.703Z,79.53
2018-10-09T18:52:56.972Z,79.35
2018-10-09T18:55:25.267Z,79.62
2018-10-09T18:57:53.527Z,80.94
2018-10-09T19:00:21.817Z,83.05
2018-10-09T19:02:50.414Z,83.25
2018-10-09T19:05:18.691Z,83.57
2018-10-09T19:07:46.992Z,83.75
2018-10-09T19:10:15.260Z,83.87
2018-10-09T19:12:43.559Z,84.35
2018-10-09T19:15:11.833Z,83.95
2018-10-09T19:17:40.118Z,83.23
2018-10-09T19:20:08.417Z,82.30
2018-10-09T19:22:36.740Z,82.00
2018-10-09T19:25:05.071Z,83.01
2018-10-09T19:27:33.351Z,83.69
2018-10-09T19:30:01.778Z,84.32
2018-10-09T19:32:30.116Z,84.70
2018-10-09T19:34:58.356Z,84.28
2018-10-09T19:37:26.643Z,83.91
2018-10-09T19:39:54.924Z,84.04
2018-10-09T19:42:23.211Z,84.42
2018-10-09T19:44:51.483Z,84.34
2018-10-09T19:47:20.256Z,84.51
2018-10-09T19:49:48.529Z,84.94
2018-10-09T19:52:16.979Z,84.65
2018-10-09T19:55:00.208Z,84.29
2018-10-09T19:57:28.504Z,85.03
2018-10-09T19:59:56.855Z,85.65
2018-10-09T20:02:25.164Z,85.45
2018-10-09T20:04:53.443Z,84.48
2018-10-09T20:07:21.752Z,85.28
2018-10-09T20:09:50.019Z,84.80
2018-10-09T20:12:18.315Z,85.82
2018-10-09T20:14:46.579Z,86.99
2018-10-09T20:17:14.899Z,86.75
2018-10-09T20:19:43.183Z,86.01
2018-10-09T20:22:11.890Z,86.57
2018-10-09T20:24:40.443Z,86.74
2018-10-09T20:27:08.759Z,86.12
2018-10-09T20:29:37.015Z,85.86
2018-10-09T20:32:05.319Z,85.49
2018-10-09T20:34:33.576Z,85.70
2018-10-09T20:37:01.844Z,85.37
2018-10-09T20:39:30.135Z,85.70
2018-10-09T20:41:58.479Z,85.84
2018-10-09T20:44:27.328Z,85.69
2018-10-09T20:46:55.604Z,85.90
2018-10-09T20:49:23.884Z,86.94
2018-10-09T20:51:52.167Z,87.56
2018-10-09T20:54:20.439Z,87.33
2018-10-09T20:56:48.708Z,87.32
2018-10-09T20:59:17.023Z,86.76
2018-10-09T21:01:45.352Z,87.11
2018-10-09T21:04:13.655Z,86.96
2018-10-09T21:06:41.987Z,87.07
2018-10-09T21:09:10.275Z,87.10
2018-10-09T21:11:38.549Z,85.77
2018-10-09T21:14:06.900Z,86.20
2018-10-09T21:16:35.551Z,86.00
2018-10-09T21:19:03.840Z,86.43
2018-10-09T21:21:32.120Z,86.48
2018-10-09T21:24:00.399Z,84.88
2018-10-09T21:26:28.659Z,84.74
2018-10-09T21:28:57.051Z,85.17
2018-10-09T21:31:25.323Z,84.42
2018-10-09T21:33:53.615Z,85.22
2018-10-09T21:36:21.915Z,85.34
2018-10-09T21:38:50.179Z,86.36
2018-10-09T21:41:18.447Z,85.74
2018-10-09T21:43:46.727Z,86.44
2018-10-09T21:46:14.987Z,86.60
2018-10-09T21:48:43.287Z,86.33
2018-10-09T21:51:11.544Z,86.39
2018-10-09T21:53:39.819Z,87.12
2018-10-09T21:56:08.096Z,87.36
2018-10-09T21:58:36.378Z,87.48
2018-10-09T22:01:10.842Z,88.21
2018-10-09T22:03:39.446Z,87.64
2018-10-09T22:06:08.903Z,86.89
2018-10-09T22:08:37.279Z,86.72
2018-10-09T22:11:06.402Z,84.90
2018-10-09T22:13:34.671Z,85.96
2018-10-09T22:16:02.967Z,86.65
2018-10-09T22:18:31.247Z,88.28
2018-10-09T22:20:59.951Z,87.91
2018-10-09T22:23:28.215Z,87.48
2018-10-09T22:25:56.519Z,87.28
2018-10-09T22:28:24.821Z,87.89
2018-10-09T22:30:53.107Z,87.81
2018-10-09T22:33:21.379Z,87.85
2018-10-09T22:35:50.076Z,88.48
2018-10-09T22:38:18.364Z,88.12
2018-10-09T22:40:47.035Z,88.26
2018-10-09T22:43:15.291Z,87.95
2018-10-09T22:45:43.575Z,87.93
2018-10-09T22:48:11.830Z,88.11
2018-10-09T22:50:40.127Z,88.38
2018-10-09T22:53:08.752Z,87.63
2018-10-09T22:55:37.056Z,87.67
2018-10-09T22:58:05.509Z,87.84
2018-10-09T23:00:33.907Z,88.45
2018-10-09T23:03:02.345Z,88.86
2018-10-09T23:05:30.644Z,87.80
2018-10-09T23:07:58.899Z,88.06
2018-10-09T23:10:27.213Z,88.18
2018-10-09T23:12:55.511Z,88.07
2018-10-09T23:15:24.260Z,88.68
2018-10-09T23:17:52.522Z,88.95
2018-10-09T23:20:20.806Z,88.64
2018-10-09T23:22:49.083Z,87.74
2018-10-09T23:25:17.367Z,88.37
2018-10-09T23:27:45.680Z,88.70
2018-10-09T23:30:13.959Z,88.56
2018-10-09T23:32:42.240Z,89.34
2018-10-09T23:35:10.503Z,88.54
2018-10-09T23:37:38.796Z,88.98
2018-10-09T23:40:07.286Z,89.09
2018-10-09T23:42:35.694Z,89.43
2018-10-09T23:45:04.004Z,87.99
2018-10-09T23:47:32.464Z,88.02
2018-10-09T23:50:00.723Z,88.92
2018-10-09T23:52:29.008Z,89.78
2018-10-09T23:54:57.291Z,88.13
2018-10-09T23:57:25.636Z,88.55
2018-10-09T23:59:53.875Z,88.69
